METAR Formatted Surface Weather Observation
Issued by NWS

Home | Current Version | Previous Version | Text Only | Print | Product List | Glossary On
Versions: 1
000
SAUS46 KSTO 181558 COR
MTRBLU
METAR KBLU 181552Z AUTO VRB05KT 10SM OVC100 02/M01 A3007 RMK AO2
SLP184 T00221006 TSNO



USA.gov is the U.S. government's official web portal to all federal, state and local government web resources and services.